Time;durP1;ratioP1;P1;durP2;ratioP2;P2;SDS_P1;SDS_P2;PMS_P1;PMS_P2;Temp;Humidity;BMP_temperature;BMP_pressure;BME280_temperature;BME280_humidity;BME280_pressure;Samples;Min_cycle;Max_cycle;Signal;HPM_P1;HPM_P2
2023/07/13 00:00:24;;;;;;;1.83;1.33;;;;;;;17.24;100.00;97557.69;6195446;28;20228;-55
2023/07/13 00:03:34;;;;;;;2.70;1.40;;;;;;;17.21;100.00;97562.84;6191909;28;20239;-55
2023/07/13 00:06:37;;;;;;;2.43;1.40;;;;;;;17.15;100.00;97548.66;6177568;28;20240;-54
2023/07/13 00:09:40;;;;;;;2.70;1.90;;;;;;;17.15;100.00;97542.47;6191567;28;20368;-55
2023/07/13 00:12:44;;;;;;;1.50;1.40;;;;;;;17.11;100.00;97536.84;6191817;28;20717;-54
2023/07/13 00:15:46;;;;;;;2.20;1.60;;;;;;;16.91;100.00;97516.34;6175316;28;20235;-53
2023/07/13 00:18:49;;;;;;;1.83;1.47;;;;;;;17.03;100.00;97545.53;6192885;28;20232;-55
2023/07/13 00:21:55;;;;;;;1.37;1.27;;;;;;;17.01;100.00;97545.84;6194777;28;20609;-55
2023/07/13 00:24:58;;;;;;;2.10;1.63;;;;;;;16.96;100.00;97532.44;6190882;28;20247;-54
2023/07/13 00:28:00;;;;;;;2.70;1.80;;;;;;;16.93;100.00;97530.31;6192632;28;20602;-54
2023/07/13 00:31:03;;;;;;;1.10;1.07;;;;;;;16.92;100.00;97522.53;6195193;28;20315;-55
2023/07/13 00:34:08;;;;;;;1.47;1.13;;;;;;;16.69;100.00;97497.19;6195754;28;20237;-52
2023/07/13 00:37:11;;;;;;;1.53;1.30;;;;;;;16.73;100.00;97523.25;6193504;28;20236;-54
2023/07/13 00:40:18;;;;;;;1.37;1.20;;;;;;;16.73;100.00;97525.97;6188355;28;20236;-53
2023/07/13 00:43:22;;;;;;;1.30;1.20;;;;;;;16.70;100.00;97523.03;6190219;28;20587;-54
2023/07/13 00:46:43;;;;;;;2.07;1.37;;;;;;;16.62;100.00;97529.00;6192812;28;20387;-54
2023/07/13 00:49:46;;;;;;;1.73;1.20;;;;;;;16.60;100.00;97517.72;6186330;28;20599;-54
2023/07/13 00:52:54;;;;;;;2.43;1.30;;;;;;;16.58;100.00;97509.16;6193284;28;20232;-55
2023/07/13 00:55:58;;;;;;;2.87;1.40;;;;;;;16.51;100.00;97490.66;6187634;28;20246;-55
2023/07/13 00:59:05;;;;;;;1.70;1.30;;;;;;;16.56;100.00;97479.88;6199919;28;20295;-54
2023/07/13 01:02:10;;;;;;;1.70;0.97;;;;;;;16.52;100.00;97482.31;6191870;28;20233;-54
2023/07/13 01:05:15;;;;;;;2.47;1.60;;;;;;;16.52;100.00;97473.44;6188761;28;20721;-54
2023/07/13 01:08:17;;;;;;;2.50;1.30;;;;;;;16.51;100.00;97477.22;6190874;28;20232;-55
2023/07/13 01:11:21;;;;;;;1.20;1.10;;;;;;;16.51;100.00;97483.41;6176253;28;20595;-54
2023/07/13 01:14:24;;;;;;;2.10;1.30;;;;;;;16.56;100.00;97479.06;6181575;28;20736;-53
2023/07/13 01:17:28;;;;;;;2.50;1.50;;;;;;;16.42;100.00;97460.09;6191353;28;20585;-54
2023/07/13 01:20:36;;;;;;;1.90;1.50;;;;;;;16.51;100.00;97475.34;6192618;28;20240;-55
2023/07/13 01:23:39;;;;;;;1.67;1.40;;;;;;;16.51;100.00;97466.47;6191487;28;20260;-55
2023/07/13 01:26:41;;;;;;;1.53;1.40;;;;;;;16.54;100.00;97454.31;6176974;28;20251;-55
2023/07/13 01:29:47;;;;;;;3.10;1.80;;;;;;;16.55;100.00;97451.38;6178870;28;20789;-55
2023/07/13 01:32:49;;;;;;;1.90;1.37;;;;;;;16.57;100.00;97464.53;6195134;28;20694;-55
2023/07/13 01:35:52;;;;;;;2.50;1.37;;;;;;;16.58;100.00;97455.38;6173625;28;20255;-54
2023/07/13 01:38:54;;;;;;;2.27;1.33;;;;;;;16.58;100.00;97448.09;6188801;28;20714;-55
2023/07/13 01:41:56;;;;;;;3.07;1.90;;;;;;;16.59;100.00;97425.50;6190173;28;20233;-55
2023/07/13 01:44:58;;;;;;;2.37;1.50;;;;;;;16.49;100.00;97396.03;6174611;28;20706;-55
2023/07/13 01:48:01;;;;;;;2.13;1.63;;;;;;;16.66;100.00;97441.31;6192586;28;20728;-55
2023/07/13 01:51:03;;;;;;;2.87;1.67;;;;;;;16.63;100.00;97456.09;6188270;28;20287;-55
2023/07/13 01:54:05;;;;;;;1.50;1.40;;;;;;;16.61;100.00;97449.44;6191937;28;20768;-55
2023/07/13 01:57:08;;;;;;;4.07;1.57;;;;;;;16.67;100.00;97442.91;6174844;28;20219;-55
2023/07/13 02:00:11;;;;;;;2.23;1.60;;;;;;;16.53;100.00;97421.25;6191487;28;20229;-54
2023/07/13 02:03:17;;;;;;;3.20;1.90;;;;;;;16.77;100.00;97438.22;6194748;28;20236;-56
2023/07/13 02:06:20;;;;;;;2.03;1.80;;;;;;;16.85;100.00;97457.53;6188150;28;20245;-55
2023/07/13 02:09:22;;;;;;;1.70;1.60;;;;;;;16.82;100.00;97458.09;6193128;28;20232;-55
2023/07/13 02:12:24;;;;;;;2.17;1.87;;;;;;;16.84;100.00;97463.97;6173774;28;20374;-55
2023/07/13 02:15:26;;;;;;;5.23;2.07;;;;;;;16.83;100.00;97476.63;6191000;28;20236;-55
2023/07/13 02:18:28;;;;;;;2.30;2.07;;;;;;;16.97;100.00;97493.69;6194108;28;20705;-54
2023/07/13 02:21:30;;;;;;;3.50;2.10;;;;;;;17.01;100.00;97515.44;6199344;28;20236;-55
2023/07/13 02:24:33;;;;;;;4.80;1.87;;;;;;;17.12;100.00;97511.53;6193232;28;20391;-54
2023/07/13 02:27:35;;;;;;;3.17;1.83;;;;;;;17.33;100.00;97528.22;6195211;28;20239;-55
2023/07/13 02:30:38;;;;;;;1.90;1.60;;;;;;;17.53;100.00;97541.41;6173400;28;20722;-55
2023/07/13 02:33:40;;;;;;;1.73;1.60;;;;;;;17.61;100.00;97560.72;6196018;28;20239;-54
2023/07/13 02:36:42;;;;;;;2.20;1.87;;;;;;;17.71;100.00;97566.78;6192041;28;20629;-55
2023/07/13 02:39:44;;;;;;;1.53;1.37;;;;;;;17.92;98.75;97580.78;6199460;28;20971;-55
2023/07/13 02:42:46;;;;;;;2.00;1.77;;;;;;;18.16;90.65;97604.97;6174855;28;20237;-55
2023/07/13 02:45:49;;;;;;;1.40;1.17;;;;;;;18.51;89.14;97619.00;6195555;28;20643;-55
2023/07/13 02:48:53;;;;;;;3.23;1.63;;;;;;;18.42;90.88;97631.56;6196574;28;20249;-56
2023/07/13 02:51:55;;;;;;;1.83;1.50;;;;;;;18.50;89.76;97637.09;6176376;28;20266;-53
2023/07/13 02:54:57;;;;;;;2.63;1.33;;;;;;;18.66;86.07;97644.94;6181581;28;20242;-53
2023/07/13 02:58:00;;;;;;;2.00;1.23;;;;;;;18.63;87.28;97651.75;6195476;28;20236;-55
2023/07/13 03:01:09;;;;;;;1.77;1.30;;;;;;;18.52;89.31;97648.41;6196959;28;20367;-53
2023/07/13 03:04:12;;;;;;;2.33;1.40;;;;;;;18.45;89.80;97657.94;6176720;28;20233;-54
2023/07/13 03:07:15;;;;;;;2.33;1.10;;;;;;;18.34;92.12;97673.50;6177276;28;20236;-53
2023/07/13 03:10:20;;;;;;;2.83;1.60;;;;;;;18.01;95.15;97659.13;6194106;28;20236;-55
2023/07/13 03:13:24;;;;;;;1.83;1.50;;;;;;;17.98;96.89;97673.16;6181236;28;20391;-55
2023/07/13 03:16:26;;;;;;;1.87;1.60;;;;;;;17.87;98.29;97664.41;6194558;28;20634;-53
2023/07/13 03:19:29;;;;;;;2.67;1.50;;;;;;;17.72;100.00;97659.19;6194759;28;20222;-52
2023/07/13 03:22:32;;;;;;;2.50;1.60;;;;;;;17.66;100.00;97666.53;6182143;28;20303;-53
2023/07/13 03:25:34;;;;;;;2.30;1.53;;;;;;;17.59;100.00;97660.69;6196589;28;20713;-54
2023/07/13 03:28:37;;;;;;;2.47;2.03;;;;;;;17.51;100.00;97662.13;6192601;28;20723;-53
2023/07/13 03:31:40;;;;;;;2.70;2.00;;;;;;;17.47;100.00;97665.69;6179184;28;20232;-53
2023/07/13 03:34:42;;;;;;;2.40;1.80;;;;;;;17.43;100.00;97661.94;6193335;28;20239;-54
2023/07/13 03:37:44;;;;;;;2.90;2.07;;;;;;;17.39;100.00;97671.69;6196693;28;20247;-52
2023/07/13 03:40:52;;;;;;;2.07;1.83;;;;;;;17.35;100.00;97670.66;6177715;28;20705;-53
2023/07/13 03:43:55;;;;;;;2.53;1.90;;;;;;;17.34;100.00;97675.25;6190738;28;20241;-53
2023/07/13 03:46:59;;;;;;;3.00;2.00;;;;;;;17.02;100.00;97638.16;6177833;28;20291;-55
2023/07/13 03:50:01;;;;;;;3.67;1.80;;;;;;;17.23;100.00;97669.16;6189367;28;20229;-53
2023/07/13 03:53:04;;;;;;;4.13;1.93;;;;;;;17.06;100.00;97651.84;6191978;28;20247;-53
2023/07/13 03:56:07;;;;;;;2.63;1.90;;;;;;;17.18;100.00;97682.66;6176601;28;20237;-52
2023/07/13 03:59:09;;;;;;;2.90;1.80;;;;;;;17.22;100.00;97681.00;6197566;28;20597;-52
2023/07/13 04:02:11;;;;;;;6.10;1.90;;;;;;;17.24;100.00;97678.84;6192087;28;20237;-53
2023/07/13 04:05:14;;;;;;;3.57;1.90;;;;;;;17.23;100.00;97673.72;6198361;28;20235;-53
2023/07/13 04:08:16;;;;;;;2.90;1.83;;;;;;;17.24;100.00;97659.19;6191757;28;20241;-53
2023/07/13 04:11:20;;;;;;;2.67;1.97;;;;;;;17.23;100.00;97633.34;6194361;28;20372;-53
2023/07/13 04:14:22;;;;;;;2.90;1.90;;;;;;;17.24;100.00;97611.53;6193769;28;20225;-54
2023/07/13 04:17:24;;;;;;;4.17;1.87;;;;;;;17.20;100.00;97610.50;6189365;28;20240;-54
2023/07/13 04:20:27;;;;;;;1.73;1.40;;;;;;;17.18;100.00;97601.91;6193596;28;20241;-54
2023/07/13 04:23:29;;;;;;;5.47;1.93;;;;;;;17.16;100.00;97592.53;6192312;28;20233;-54
2023/07/13 04:26:31;;;;;;;1.80;1.53;;;;;;;17.13;100.00;97585.81;6192959;28;20375;-53
2023/07/13 04:29:33;;;;;;;2.23;1.60;;;;;;;17.09;100.00;97582.06;6195611;28;20234;-53
2023/07/13 04:32:36;;;;;;;3.23;1.67;;;;;;;17.08;100.00;97577.78;6191857;28;20240;-53
2023/07/13 04:35:38;;;;;;;1.20;1.10;;;;;;;17.05;100.00;97572.19;6191526;28;20261;-53
2023/07/13 04:38:41;;;;;;;1.90;1.43;;;;;;;17.06;100.00;97554.94;6194245;28;20237;-53
2023/07/13 04:41:43;;;;;;;2.27;1.40;;;;;;;17.06;100.00;97550.38;6186982;28;20236;-54
2023/07/13 04:44:52;;;;;;;1.23;1.13;;;;;;;17.05;100.00;97538.00;6191503;28;20225;-54
2023/07/13 04:47:54;;;;;;;3.13;1.37;;;;;;;17.10;100.00;97540.63;6192068;28;20371;-52
2023/07/13 04:50:57;;;;;;;5.20;1.60;;;;;;;16.96;100.00;97520.88;6191949;28;20233;-53
2023/07/13 04:53:59;;;;;;;3.03;1.47;;;;;;;17.11;100.00;97544.94;6193355;28;20892;-52
2023/07/13 04:57:06;;;;;;;2.30;1.60;;;;;;;17.13;100.00;97544.63;6195979;28;20236;-52
2023/07/13 05:00:09;;;;;;;2.83;1.40;;;;;;;17.15;100.00;97529.00;6195328;28;20232;-52
2023/07/13 05:03:11;;;;;;;2.50;1.57;;;;;;;17.15;100.00;97529.00;6190943;28;20221;-52
2023/07/13 05:06:13;;;;;;;1.53;1.40;;;;;;;17.14;100.00;97520.13;6174390;28;20216;-53
2023/07/13 05:09:16;;;;;;;2.27;1.60;;;;;;;17.15;100.00;97508.28;6190004;28;20216;-51
2023/07/13 05:12:18;;;;;;;2.50;1.67;;;;;;;17.18;100.00;97506.88;6194843;28;20602;-51
2023/07/13 05:15:22;;;;;;;1.50;1.40;;;;;;;17.21;100.00;97514.41;6191652;28;20708;-52
2023/07/13 05:18:24;;;;;;;3.33;1.50;;;;;;;16.98;100.00;97495.28;6191900;28;20643;-52
2023/07/13 05:21:26;;;;;;;4.10;1.90;;;;;;;17.30;100.00;97544.19;6189025;28;20267;-53
2023/07/13 05:24:29;;;;;;;2.67;1.60;;;;;;;17.33;100.00;97544.38;6191507;28;20225;-52
2023/07/13 05:27:31;;;;;;;2.03;1.80;;;;;;;17.40;100.00;97549.44;6190151;28;20589;-53
2023/07/13 05:30:34;;;;;;;1.70;1.60;;;;;;;17.42;100.00;97558.00;6195529;28;20220;-51
2023/07/13 05:33:36;;;;;;;3.27;1.67;;;;;;;17.44;100.00;97574.69;6190263;28;20240;-52
2023/07/13 05:36:38;;;;;;;1.27;1.17;;;;;;;17.38;100.00;97575.81;6190337;28;20255;-52
2023/07/13 05:39:40;;;;;;;2.40;1.27;;;;;;;17.39;100.00;97586.34;6190827;28;20621;-54
2023/07/13 05:42:42;;;;;;;1.20;1.10;;;;;;;17.35;100.00;97593.38;6190468;28;20771;-52
2023/07/13 05:45:45;;;;;;;3.43;1.30;;;;;;;17.31;100.00;97596.94;6188223;28;20224;-53
2023/07/13 05:48:47;;;;;;;1.17;1.03;;;;;;;17.26;100.00;97601.28;6192535;28;20229;-52
2023/07/13 05:51:49;;;;;;;1.10;0.80;;;;;;;17.15;100.00;97610.56;6193653;28;20315;-52
2023/07/13 05:54:51;;;;;;;1.00;0.90;;;;;;;17.07;100.00;97615.75;6193345;28;20706;-52
2023/07/13 05:57:54;;;;;;;1.77;1.00;;;;;;;16.96;100.00;97625.84;6199383;28;20227;-52
2023/07/13 06:01:01;;;;;;;1.53;0.90;;;;;;;16.96;100.00;97626.63;6197394;28;20228;-53
2023/07/13 06:04:04;;;;;;;1.50;1.00;;;;;;;16.93;100.00;97635.25;6179008;28;20240;-52
2023/07/13 06:07:06;;;;;;;1.47;1.07;;;;;;;16.92;100.00;97630.97;6177044;28;20244;-52
2023/07/13 06:10:09;;;;;;;1.97;1.40;;;;;;;16.98;100.00;97629.84;6194856;28;20254;-53
2023/07/13 06:13:11;;;;;;;1.50;1.40;;;;;;;16.93;100.00;97616.44;6192130;28;20710;-53
2023/07/13 06:16:13;;;;;;;1.50;1.40;;;;;;;17.02;100.00;97647.03;6191828;28;20243;-53
2023/07/13 06:19:15;;;;;;;2.50;1.13;;;;;;;16.98;100.00;97645.19;6195035;28;20620;-52
2023/07/13 06:22:18;;;;;;;1.70;1.03;;;;;;;17.07;100.00;97659.63;6196440;28;20229;-54
2023/07/13 06:25:20;;;;;;;1.23;0.87;;;;;;;17.28;100.00;97658.31;6195476;28;20243;-52
2023/07/13 06:28:22;;;;;;;1.40;1.07;;;;;;;17.46;99.15;97664.06;6194453;28;20237;-50
2023/07/13 06:31:24;;;;;;;2.37;1.30;;;;;;;17.44;99.41;97663.56;6180358;28;20243;-53
2023/07/13 06:34:26;;;;;;;1.30;0.90;;;;;;;17.53;97.17;97673.41;6183875;28;20625;-53
2023/07/13 06:37:29;;;;;;;0.80;0.80;;;;;;;17.67;96.65;97673.53;6191529;28;20229;-54
2023/07/13 06:40:31;;;;;;;1.93;1.00;;;;;;;17.66;98.25;97668.44;6195890;28;20605;-54
2023/07/13 06:43:33;;;;;;;1.90;1.20;;;;;;;17.67;99.86;97670.03;6197616;28;20319;-54
2023/07/13 06:46:35;;;;;;;1.43;1.10;;;;;;;17.66;100.00;97671.13;6197563;28;20257;-52
2023/07/13 06:49:38;;;;;;;3.53;1.00;;;;;;;17.72;100.00;97675.34;6195125;28;20233;-53
2023/07/13 06:52:40;;;;;;;0.97;0.87;;;;;;;17.79;100.00;97660.47;6190321;28;20236;-52
2023/07/13 06:55:44;;;;;;;2.27;1.10;;;;;;;17.94;98.20;97662.19;6195819;28;20319;-53
2023/07/13 06:58:46;;;;;;;1.23;1.00;;;;;;;18.16;99.34;97658.91;6196504;28;20245;-50
2023/07/13 07:01:48;;;;;;;1.07;0.90;;;;;;;18.43;92.60;97657.47;6192699;28;20863;-52
2023/07/13 07:04:51;;;;;;;2.00;1.07;;;;;;;18.60;91.00;97670.41;6190140;28;20609;-53
2023/07/13 07:07:55;;;;;;;1.13;0.93;;;;;;;18.77;87.60;97668.00;6177671;28;20267;-53
2023/07/13 07:10:57;;;;;;;1.33;0.83;;;;;;;18.77;91.06;97676.91;6194906;28;20259;-53
2023/07/13 07:13:59;;;;;;;1.47;0.80;;;;;;;18.85;85.67;97666.53;6201092;28;20243;-53
2023/07/13 07:17:01;;;;;;;1.90;0.87;;;;;;;18.92;84.27;97669.66;6192485;28;20279;-53
2023/07/13 07:20:04;;;;;;;0.63;0.63;;;;;;;18.87;87.56;97673.25;6195249;28;20232;-51
2023/07/13 07:23:08;;;;;;;0.90;0.80;;;;;;;18.79;90.52;97676.59;6182242;28;20260;-52
2023/07/13 07:26:11;;;;;;;1.00;0.93;;;;;;;18.70;94.13;97678.38;6194994;28;20712;-52
2023/07/13 07:29:13;;;;;;;2.00;0.90;;;;;;;18.58;95.13;97661.81;6195762;28;20737;-52
2023/07/13 07:32:19;;;;;;;1.30;0.80;;;;;;;18.50;97.18;97674.84;6197289;28;20332;-52
2023/07/13 07:35:24;;;;;;;0.80;0.80;;;;;;;18.50;97.46;97690.25;6193394;28;20232;-53
2023/07/13 07:38:27;;;;;;;1.30;0.90;;;;;;;18.49;87.22;97675.16;6193323;28;20721;-53
2023/07/13 07:41:29;;;;;;;0.60;0.57;;;;;;;18.59;87.24;97648.03;6193603;28;20279;-52
2023/07/13 07:44:36;;;;;;;1.57;0.70;;;;;;;19.40;79.36;97672.03;6192961;28;20232;-54
2023/07/13 07:47:38;;;;;;;1.03;0.93;;;;;;;19.72;79.01;97665.75;6177473;28;20705;-54
2023/07/13 07:50:40;;;;;;;1.83;0.60;;;;;;;19.67;82.27;97663.16;6190977;28;20229;-53
2023/07/13 07:53:43;;;;;;;1.40;0.77;;;;;;;19.60;83.77;97666.25;6192609;28;20240;-51
2023/07/13 07:56:45;;;;;;;0.80;0.80;;;;;;;19.59;84.07;97670.03;6195637;28;20231;-51
2023/07/13 08:00:07;;;;;;;1.00;0.80;;;;;;;19.71;84.09;97672.28;6191156;28;20251;-53
2023/07/13 08:03:15;;;;;;;1.00;0.70;;;;;;;19.87;83.60;97681.66;6195585;28;20213;-53
2023/07/13 08:06:21;;;;;;;1.40;0.93;;;;;;;20.20;75.98;97681.53;6195394;28;20308;-54
2023/07/13 08:09:26;;;;;;;2.13;0.63;;;;;;;20.22;78.00;97682.81;6190450;28;20239;-54
2023/07/13 08:12:29;;;;;;;2.27;0.90;;;;;;;20.55;75.27;97691.56;6192791;28;20714;-52
2023/07/13 08:15:33;;;;;;;1.20;0.70;;;;;;;20.56;81.61;97686.97;6189998;28;20331;-53
2023/07/13 08:18:36;;;;;;;1.97;0.90;;;;;;;20.72;77.70;97696.31;6192937;28;20282;-54
2023/07/13 08:21:38;;;;;;;1.50;0.80;;;;;;;20.78;78.26;97684.25;6191389;28;20598;-53
2023/07/13 08:24:42;;;;;;;2.73;1.17;;;;;;;20.95;80.79;97690.91;6195273;28;20228;-53
2023/07/13 08:27:44;;;;;;;0.70;0.70;;;;;;;21.07;79.42;97691.91;6191009;28;20232;-53
2023/07/13 08:30:49;;;;;;;1.67;1.00;;;;;;;21.45;70.20;97683.41;6193635;28;20709;-54
2023/07/13 08:33:52;;;;;;;1.10;0.90;;;;;;;21.46;74.60;97705.88;6191617;28;20237;-53
2023/07/13 08:36:54;;;;;;;1.03;0.90;;;;;;;21.42;75.57;97708.41;6191216;28;20247;-54
2023/07/13 08:39:56;;;;;;;1.70;1.00;;;;;;;21.53;73.56;97698.91;6195371;28;20239;-54
2023/07/13 08:42:59;;;;;;;1.47;1.00;;;;;;;21.60;76.78;97698.44;6190308;28;20753;-53
2023/07/13 08:46:13;;;;;;;1.90;0.93;;;;;;;21.88;68.98;97701.75;6175093;28;20236;-53
2023/07/13 08:49:22;;;;;;;1.67;1.10;;;;;;;21.88;71.73;97697.13;6179778;28;20245;-53
2023/07/13 08:52:34;;;;;;;1.60;1.13;;;;;;;22.03;69.13;97703.22;6193287;28;20706;-53
2023/07/13 08:55:38;;;;;;;1.73;1.30;;;;;;;22.25;67.00;97703.13;6192662;28;20229;-54
2023/07/13 08:58:41;;;;;;;1.23;1.07;;;;;;;22.48;68.19;97720.06;6191539;28;20231;-54
2023/07/13 09:01:59;;;;;;;1.30;1.20;;;;;;;22.43;73.80;97730.28;6191350;28;20237;-54
2023/07/13 09:05:10;;;;;;;1.63;1.00;;;;;;;22.44;68.19;97719.09;6193073;28;20730;-55
2023/07/13 09:08:37;;;;;;;1.33;1.00;;;;;;;22.45;72.08;97747.06;6191086;28;20233;-54
2023/07/13 09:11:48;;;;;;;1.30;1.20;;;;;;;22.28;73.50;97739.69;6189893;28;20233;-54
2023/07/13 09:14:58;;;;;;;1.67;1.57;;;;;;;22.06;72.30;97721.56;6193189;28;20233;-53
2023/07/13 09:18:24;;;;;;;1.30;1.10;;;;;;;22.01;70.50;97732.56;6190441;28;20323;-53
2023/07/13 09:21:33;;;;;;;3.60;1.40;;;;;;;22.02;74.61;97734.16;6190491;28;20220;-54
2023/07/13 09:24:38;;;;;;;2.97;1.50;;;;;;;22.27;75.57;97719.91;6173451;28;20638;-54
2023/07/13 09:27:44;;;;;;;1.90;1.40;;;;;;;22.54;71.98;97716.06;6193684;28;20231;-54
2023/07/13 09:31:04;;;;;;;1.67;1.42;;;;;;;22.64;74.71;97710.34;6196969;28;20236;-53
2023/07/13 09:34:10;;;;;;;2.13;1.50;;;;;;;22.66;68.09;97715.47;6191885;28;20240;-55
2023/07/13 09:37:12;;;;;;;1.60;1.50;;;;;;;22.69;68.91;97711.28;6192729;28;20247;-54
2023/07/13 09:40:43;;;;;;;4.40;2.53;;;;;;;23.07;61.68;97733.19;6190881;28;20229;-53
2023/07/13 09:44:32;;;;;;;2.27;2.07;;;;;;;23.04;64.07;97720.25;6189699;28;20364;-55
2023/07/13 09:47:39;;;;;;;2.40;2.03;;;;;;;23.12;62.99;97712.09;6111514;28;20235;-54
2023/07/13 09:50:44;;;;;;;2.65;2.35;;;;;;;23.19;65.83;97711.56;6192876;28;20263;-55
2023/07/13 09:53:46;;;;;;;4.43;2.13;;;;;;;23.20;68.94;97709.66;6190512;28;20237;-55
2023/07/13 09:56:53;;;;;;;3.00;2.17;;;;;;;23.05;69.00;97719.13;6191312;28;20330;-54
2023/07/13 10:00:00;;;;;;;3.22;2.30;;;;;;;22.91;68.39;97711.97;6190665;28;20318;-54
2023/07/13 10:03:16;;;;;;;2.28;2.08;;;;;;;22.79;70.22;97733.50;6189608;28;20236;-54
2023/07/13 10:06:22;;;;;;;3.93;2.53;;;;;;;22.52;66.63;97726.47;6192516;28;20225;-55
2023/07/13 10:09:24;;;;;;;3.05;2.75;;;;;;;22.56;66.40;97742.91;6190526;28;20598;-54
2023/07/13 10:12:29;;;;;;;3.27;2.97;;;;;;;22.71;62.50;97736.19;6193633;28;20224;-51
2023/07/13 10:15:32;;;;;;;4.17;2.90;;;;;;;22.68;65.25;97748.53;6190351;28;20352;-50
2023/07/13 10:18:43;;;;;;;2.95;2.65;;;;;;;22.66;64.53;97748.06;6191202;28;20240;-50
2023/07/13 10:21:53;;;;;;;5.47;2.70;;;;;;;22.63;65.59;97754.09;6190261;28;20237;-48
2023/07/13 10:24:55;;;;;;;3.45;2.45;;;;;;;22.60;66.43;97758.25;6191897;28;20240;-48
2023/07/13 10:28:16;;;;;;;2.78;2.58;;;;;;;22.44;68.88;97756.31;6192291;28;20302;-51
2023/07/13 10:31:19;;;;;;;2.60;2.40;;;;;;;22.48;65.91;97758.09;6195145;28;20627;-51
2023/07/13 10:34:23;;;;;;;2.47;2.07;;;;;;;22.66;63.12;97748.06;6194132;28;20601;-52
2023/07/13 10:37:32;;;;;;;3.63;2.73;;;;;;;22.76;65.23;97766.75;6193815;28;20240;-52
2023/07/13 10:40:38;;;;;;;2.93;2.60;;;;;;;22.84;63.27;97759.69;6195219;28;20268;-54
2023/07/13 10:43:49;;;;;;;2.47;2.27;;;;;;;23.06;57.80;97743.28;6176781;28;20765;-54
2023/07/13 10:46:57;;;;;;;4.30;2.57;;;;;;;22.93;62.64;97727.94;6195425;28;20236;-54
2023/07/13 10:50:00;;;;;;;3.55;2.35;;;;;;;22.85;66.41;97734.13;6191850;28;20234;-53
2023/07/13 10:53:27;;;;;;;2.80;2.50;;;;;;;22.82;65.96;97738.28;6195127;28;20240;-53
2023/07/13 10:56:30;;;;;;;2.70;2.50;;;;;;;22.97;61.15;97726.16;6194521;28;20235;-54
2023/07/13 10:59:34;;;;;;;2.55;2.35;;;;;;;23.33;60.35;97731.22;6199614;28;20229;-53
2023/07/13 11:02:37;;;;;;;3.58;2.17;;;;;;;23.67;58.23;97734.97;6199933;28;20325;-39
2023/07/13 11:05:40;;;;;;;2.50;2.30;;;;;;;23.67;61.00;97738.50;6194971;28;20232;-39
2023/07/13 11:08:48;;;;;;;3.45;2.47;;;;;;;23.66;62.46;97736.13;6192123;28;20752;-39
2023/07/13 11:11:51;;;;;;;2.80;2.38;;;;;;;23.52;59.58;97744.44;6195781;28;20225;-39
2023/07/13 11:14:57;;;;;;;2.60;2.40;;;;;;;23.44;56.80;97740.63;6195500;28;20247;-39
2023/07/13 11:18:04;;;;;;;5.55;2.20;;;;;;;23.35;61.28;97745.31;6192932;28;20230;-39
2023/07/13 11:21:28;;;;;;;3.50;2.20;;;;;;;23.27;62.58;97737.16;6194583;28;20699;-39
2023/07/13 11:25:29;;;;;;;3.15;2.38;;;;;;;23.18;66.87;97742.59;6181535;28;20265;-39
2023/07/13 11:28:32;;;;;;;2.75;1.95;;;;;;;23.68;52.63;97740.09;6097760;29;20326;-39
2023/07/13 11:31:35;;;;;;;2.33;2.13;;;;;;;23.46;59.27;97747.66;6099073;29;20247;-39
2023/07/13 11:34:38;;;;;;;2.45;1.90;;;;;;;23.07;63.18;97727.75;6097795;29;20240;-39
2023/07/13 11:37:41;;;;;;;2.20;1.90;;;;;;;23.04;60.33;97750.94;6099394;29;20267;-39
2023/07/13 11:40:46;;;;;;;2.50;2.08;;;;;;;22.87;62.64;97738.13;6098265;29;20371;-39
2023/07/13 11:44:02;;;;;;;3.15;2.30;;;;;;;22.87;61.45;97724.56;6098358;29;20235;-39
2023/07/13 11:47:20;;;;;;;3.67;2.30;;;;;;;22.96;64.08;97734.66;6099710;29;20240;-39
2023/07/13 11:50:24;;;;;;;3.00;1.90;;;;;;;23.17;58.12;97730.13;6096569;28;20295;-39
2023/07/13 11:53:29;;;;;;;4.38;2.53;;;;;;;23.29;61.15;97729.47;6099983;29;20242;-39
2023/07/13 11:56:33;;;;;;;2.45;1.90;;;;;;;23.49;62.68;97731.47;6100292;29;20235;-39
2023/07/13 11:59:40;;;;;;;2.20;2.03;;;;;;;23.30;65.55;97722.91;6102653;29;20235;-39
2023/07/13 12:02:57;;;;;;;2.13;1.92;;;;;;;22.99;61.75;97702.19;6117722;28;20220;-40
2023/07/13 12:06:05;;;;;;;2.30;2.10;;;;;;;23.11;58.31;97706.97;6190978;28;20752;-39
2023/07/13 12:09:15;;;;;;;2.33;2.13;;;;;;;23.23;59.70;97709.81;6192815;28;20232;-39
2023/07/13 12:12:21;;;;;;;3.22;2.17;;;;;;;23.20;59.13;97718.59;6193094;28;20565;-39
2023/07/13 12:15:38;;;;;;;2.78;2.17;;;;;;;23.14;65.15;97711.75;6193451;28;20750;-39
2023/07/13 12:18:45;;;;;;;3.50;2.15;;;;;;;23.08;67.44;97700.25;6193049;28;20240;-39
2023/07/13 12:21:49;;;;;;;2.63;2.40;;;;;;;23.00;70.22;97708.41;6192981;28;20235;-39
2023/07/13 12:24:52;;;;;;;3.58;2.38;;;;;;;22.94;65.94;97705.06;6195440;28;20263;-39
2023/07/13 12:27:54;;;;;;;5.10;2.55;;;;;;;23.36;56.82;97700.69;6192051;28;20247;-39
2023/07/13 12:31:07;;;;;;;4.60;2.40;;;;;;;23.50;57.44;97707.84;6193495;28;20245;-39
2023/07/13 12:34:19;;;;;;;11.98;5.25;;;;;;;23.51;58.21;97720.31;6181391;28;20600;-39
2023/07/13 12:37:23;;;;;;;40.53;13.05;;;;;;;23.60;58.04;97718.34;6189106;28;20228;-40
2023/07/13 12:40:34;;;;;;;2.88;2.33;;;;;;;23.71;56.43;97716.91;6192809;28;20244;-40
2023/07/13 12:43:40;;;;;;;3.05;2.28;;;;;;;23.59;61.30;97714.00;6188727;28;20656;-41
2023/07/13 12:47:04;;;;;;;2.38;2.13;;;;;;;23.57;63.02;97713.56;6191130;28;20232;-41
2023/07/13 12:50:15;;;;;;;3.25;2.20;;;;;;;23.53;67.52;97705.25;6177791;28;20229;-42
2023/07/13 12:53:27;;;;;;;4.97;2.78;;;;;;;23.55;63.80;97696.78;6193235;28;20233;-42
2023/07/13 12:56:33;;;;;;;9.63;3.30;;;;;;;23.67;64.36;97699.63;6179550;28;20232;-40
2023/07/13 12:59:36;;;;;;;95.93;26.42;;;;;;;24.03;65.03;97703.75;6197165;28;20226;-41
2023/07/13 13:02:38;;;;;;;14.38;6.10;;;;;;;24.41;53.60;97690.09;6195623;28;20243;-39
2023/07/13 13:05:42;;;;;;;11.80;3.53;;;;;;;24.71;53.68;97693.53;6192560;28;20326;-40
2023/07/13 13:08:51;;;;;;;4.60;1.95;;;;;;;24.73;52.53;97693.19;6188466;28;20269;-40
2023/07/13 13:11:53;;;;;;;4.90;2.33;;;;;;;24.75;55.05;97678.13;6189524;28;20611;-40
2023/07/13 13:14:56;;;;;;;6.43;2.45;;;;;;;24.71;53.07;97674.47;6190685;28;20340;-40
2023/07/13 13:17:58;;;;;;;6.53;3.63;;;;;;;24.79;49.66;97672.81;6187966;28;20384;-39
2023/07/13 13:21:01;;;;;;;2.28;1.80;;;;;;;24.67;52.24;97668.09;6192155;28;20232;-41
2023/07/13 13:24:13;;;;;;;3.17;1.80;;;;;;;24.63;58.74;97694.41;6192656;28;20267;-41
2023/07/13 13:27:18;;;;;;;2.30;1.60;;;;;;;24.32;52.30;97673.78;6191104;28;20647;-42
2023/07/13 13:30:21;;;;;;;1.75;1.65;;;;;;;24.22;51.03;97690.50;6197169;28;20232;-41
2023/07/13 13:33:23;;;;;;;3.13;1.75;;;;;;;24.15;50.67;97691.06;6173663;28;20228;-41
2023/07/13 13:36:25;;;;;;;2.35;1.73;;;;;;;24.14;54.98;97688.66;6174089;28;20239;-41
2023/07/13 13:39:38;;;;;;;2.45;1.83;;;;;;;24.12;57.17;97683.53;6188530;28;20239;-41
2023/07/13 13:42:42;;;;;;;2.45;2.00;;;;;;;24.15;54.64;97687.53;6191689;28;20307;-41
2023/07/13 13:45:45;;;;;;;1.42;1.30;;;;;;;24.17;57.16;97686.06;6193453;28;20233;-41
2023/07/13 13:48:49;;;;;;;1.92;1.73;;;;;;;24.32;54.38;97665.63;6192137;28;20331;-41
2023/07/13 13:51:52;;;;;;;1.98;1.77;;;;;;;24.28;53.64;97639.38;6189193;28;20363;-41
2023/07/13 13:54:57;;;;;;;1.90;1.70;;;;;;;24.24;54.27;97631.09;6191658;28;20698;-41
2023/07/13 13:57:59;;;;;;;3.53;2.08;;;;;;;24.25;56.85;97635.41;6192874;28;20235;-39
2023/07/13 14:01:01;;;;;;;2.42;1.83;;;;;;;24.05;60.40;97630.75;6191536;28;20233;-39
2023/07/13 14:04:05;;;;;;;2.60;2.05;;;;;;;24.03;55.40;97635.72;6191523;28;20236;-39
2023/07/13 14:07:07;;;;;;;3.42;2.25;;;;;;;24.01;58.91;97632.53;6192599;28;20243;-39
2023/07/13 14:10:13;;;;;;;3.08;2.00;;;;;;;23.92;60.55;97636.13;6181892;28;20228;-39
2023/07/13 14:13:26;;;;;;;2.45;1.83;;;;;;;23.78;62.02;97638.28;6194859;28;20237;-40
2023/07/13 14:16:33;;;;;;;5.47;3.00;;;;;;;23.56;59.77;97654.84;6193892;28;20239;-39
2023/07/13 14:19:36;;;;;;;3.28;2.10;;;;;;;23.49;58.86;97660.78;6194852;28;20284;-39
2023/07/13 14:22:39;;;;;;;31.15;8.50;;;;;;;23.44;61.36;97658.25;6198358;28;20733;-39
2023/07/13 14:25:43;;;;;;;12.73;4.68;;;;;;;23.31;63.19;97673.66;6199216;28;20237;-39